createdAt,value
2023-03-29T00:02:02.522Z,7.22
2023-03-29T00:04:53.358Z,7.45
2023-03-29T00:07:42.477Z,7.44
2023-03-29T00:10:32.207Z,7.47
2023-03-29T00:13:20.838Z,7.51
2023-03-29T00:16:10.024Z,7.52
2023-03-29T00:18:59.878Z,7.61
2023-03-29T00:21:48.301Z,7.60
2023-03-29T00:24:36.830Z,7.55
2023-03-29T00:27:25.369Z,7.54
2023-03-29T00:30:14.961Z,7.55
2023-03-29T00:33:03.845Z,7.58
2023-03-29T00:35:54.413Z,7.70
2023-03-29T00:38:43.078Z,7.75
2023-03-29T00:41:31.587Z,7.62
2023-03-29T00:44:57.437Z,7.74
2023-03-29T00:47:47.812Z,7.86
2023-03-29T00:50:39.732Z,7.82
2023-03-29T00:53:33.431Z,7.65
2023-03-29T00:56:24.957Z,7.74
2023-03-29T00:59:16.169Z,7.82
2023-03-29T01:02:05.775Z,7.60
2023-03-29T01:04:58.279Z,7.69
2023-03-29T01:07:50.382Z,7.73
2023-03-29T01:10:42.671Z,7.70
2023-03-29T01:13:37.067Z,7.65
2023-03-29T01:16:25.932Z,7.71
2023-03-29T01:19:19.024Z,7.79
2023-03-29T01:22:14.766Z,7.56
2023-03-29T01:25:11.190Z,7.75
2023-03-29T01:28:04.849Z,7.78
2023-03-29T01:30:55.923Z,7.77
2023-03-29T01:33:47.146Z,7.74
2023-03-29T01:36:40.469Z,7.68
2023-03-29T01:39:29.040Z,7.63
2023-03-29T01:42:27.328Z,7.73
2023-03-29T01:45:22.831Z,7.68
2023-03-29T01:48:16.508Z,7.67
2023-03-29T01:51:08.222Z,7.68
2023-03-29T01:54:00.362Z,7.66
2023-03-29T01:56:50.035Z,7.64
2023-03-29T01:59:42.074Z,7.31
2023-03-29T02:02:32.311Z,7.57
2023-03-29T02:05:22.374Z,7.57
2023-03-29T02:08:13.392Z,7.58
2023-03-29T02:11:02.533Z,7.56
2023-03-29T02:13:51.146Z,7.52
2023-03-29T02:16:40.368Z,7.51
2023-03-29T02:19:30.208Z,7.67
2023-03-29T02:22:23.117Z,7.52
2023-03-29T02:25:12.883Z,7.52
2023-03-29T02:28:01.797Z,7.51
2023-03-29T02:30:54.624Z,7.56
2023-03-29T02:33:46.596Z,7.48
2023-03-29T02:36:41.530Z,7.28
2023-03-29T02:39:31.734Z,7.27
2023-03-29T02:42:20.782Z,7.23
2023-03-29T02:45:10.699Z,7.17
2023-03-29T02:48:01.393Z,7.15
2023-03-29T02:50:52.198Z,7.06
2023-03-29T02:53:44.217Z,6.95
2023-03-29T02:56:43.217Z,6.83
2023-03-29T02:59:31.835Z,6.79
2023-03-29T03:02:20.677Z,6.70
2023-03-29T03:05:09.986Z,6.57
2023-03-29T03:07:59.308Z,6.49
2023-03-29T03:10:49.112Z,6.34
2023-03-29T03:13:37.666Z,6.29
2023-03-29T03:16:26.402Z,6.25
2023-03-29T03:19:15.295Z,6.15
2023-03-29T03:22:06.062Z,6.08
2023-03-29T03:24:55.888Z,5.99
2023-03-29T03:27:45.970Z,5.94
2023-03-29T03:30:34.883Z,5.91
2023-03-29T03:33:24.052Z,5.85
2023-03-29T03:36:12.610Z,5.69
2023-03-29T03:39:01.565Z,5.63
2023-03-29T03:41:50.028Z,5.55
2023-03-29T03:44:40.084Z,5.51
2023-03-29T03:47:29.216Z,5.49
2023-03-29T03:50:18.454Z,5.35
2023-03-29T03:53:07.114Z,5.47
2023-03-29T03:55:56.801Z,5.43
2023-03-29T03:58:45.729Z,5.39
2023-03-29T04:01:37.657Z,5.35
2023-03-29T04:04:26.743Z,5.30
2023-03-29T04:07:17.778Z,5.23
2023-03-29T04:10:08.930Z,5.23
2023-03-29T04:12:57.376Z,4.95
2023-03-29T04:15:46.097Z,5.25
2023-03-29T04:18:36.218Z,5.24
2023-03-29T04:21:24.966Z,5.21
2023-03-29T04:24:13.548Z,5.34
2023-03-29T04:27:02.002Z,5.31
2023-03-29T04:29:50.466Z,5.25
2023-03-29T04:32:39.132Z,5.31
2023-03-29T04:35:28.991Z,5.34
2023-03-29T04:38:17.517Z,5.35
2023-03-29T04:41:06.431Z,5.30
2023-03-29T04:43:56.027Z,5.46
2023-03-29T04:46:44.601Z,5.45
2023-03-29T04:49:33.526Z,5.38
2023-03-29T04:52:24.610Z,5.28
2023-03-29T04:55:13.233Z,5.49
2023-03-29T04:58:02.718Z,5.48
2023-03-29T05:00:51.527Z,5.48
2023-03-29T05:03:40.209Z,5.55
2023-03-29T05:06:29.130Z,5.52
2023-03-29T05:09:19.537Z,5.58
2023-03-29T05:12:08.389Z,5.56
2023-03-29T05:14:56.842Z,5.63
2023-03-29T05:17:45.355Z,5.75
2023-03-29T05:20:33.825Z,5.77
2023-03-29T05:23:22.570Z,5.78
2023-03-29T05:26:15.217Z,5.77
2023-03-29T05:29:04.344Z,5.80
2023-03-29T05:31:53.274Z,5.80
2023-03-29T05:34:42.174Z,5.83
2023-03-29T05:37:31.739Z,5.82
2023-03-29T05:40:20.500Z,5.73
2023-03-29T05:43:10.592Z,5.95
2023-03-29T05:45:59.262Z,6.01
2023-03-29T05:48:47.769Z,5.98
2023-03-29T05:51:36.328Z,6.01
2023-03-29T05:54:24.993Z,6.03
2023-03-29T05:57:13.469Z,6.07
2023-03-29T06:00:06.034Z,6.14
2023-03-29T06:02:59.295Z,6.14
2023-03-29T06:05:59.637Z,6.23
2023-03-29T06:08:48.759Z,6.26
2023-03-29T06:11:37.532Z,6.29
2023-03-29T06:14:27.158Z,6.40
2023-03-29T06:17:17.487Z,6.49
2023-03-29T06:20:10.752Z,6.19
2023-03-29T06:22:59.406Z,6.60
2023-03-29T06:25:48.730Z,6.74
2023-03-29T06:28:37.521Z,6.84
2023-03-29T06:31:26.240Z,6.79
2023-03-29T06:34:17.694Z,6.81
2023-03-29T06:37:06.812Z,6.91
2023-03-29T06:39:55.331Z,6.92
2023-03-29T06:42:45.015Z,6.94
2023-03-29T06:45:35.247Z,7.05
2023-03-29T06:48:23.966Z,7.13
2023-03-29T06:51:13.777Z,7.15
2023-03-29T06:54:02.267Z,7.25
2023-03-29T06:56:50.776Z,7.31
2023-03-29T06:59:39.356Z,7.35
2023-03-29T07:02:28.934Z,7.42
2023-03-29T07:05:17.609Z,7.51
2023-03-29T07:08:13.928Z,7.50
2023-03-29T07:11:03.527Z,7.47
2023-03-29T07:13:52.244Z,7.59
2023-03-29T07:16:41.121Z,7.67
2023-03-29T07:19:30.327Z,7.70
2023-03-29T07:22:19.368Z,7.80
2023-03-29T07:25:10.594Z,7.89
2023-03-29T07:27:59.070Z,7.94
2023-03-29T07:30:47.836Z,7.95
2023-03-29T07:33:36.405Z,7.80
2023-03-29T07:36:25.252Z,7.99
2023-03-29T07:39:15.401Z,8.11
2023-03-29T07:42:05.290Z,8.15
2023-03-29T07:44:54.253Z,8.23
2023-03-29T07:47:42.819Z,8.25
2023-03-29T07:50:32.541Z,8.38
2023-03-29T07:53:21.184Z,8.44
2023-03-29T07:56:10.178Z,8.55
2023-03-29T07:59:00.028Z,8.61
2023-03-29T08:01:48.928Z,8.65
2023-03-29T08:04:37.515Z,8.80
2023-03-29T08:07:33.857Z,8.90
2023-03-29T08:10:23.348Z,8.77
2023-03-29T08:13:12.420Z,8.53
2023-03-29T08:16:02.264Z,8.99
2023-03-29T08:18:51.145Z,9.05
2023-03-29T08:21:39.618Z,9.07
2023-03-29T08:24:28.282Z,9.18
2023-03-29T08:27:17.322Z,9.26
2023-03-29T08:30:07.877Z,9.30
2023-03-29T08:32:58.021Z,9.38
2023-03-29T08:35:46.906Z,9.31
2023-03-29T08:38:35.443Z,9.43
2023-03-29T08:41:33.122Z,9.61
2023-03-29T08:44:31.040Z,9.68
2023-03-29T08:47:22.768Z,9.80
2023-03-29T08:50:13.737Z,9.93
2023-03-29T08:53:05.952Z,10.12
2023-03-29T08:55:56.766Z,10.39
2023-03-29T08:58:46.546Z,10.65
2023-03-29T09:01:36.768Z,10.82
2023-03-29T09:04:28.202Z,10.88
2023-03-29T09:07:18.098Z,10.85
2023-03-29T09:10:07.088Z,10.81
2023-03-29T09:13:06.191Z,11.00
2023-03-29T09:16:00.566Z,11.23
2023-03-29T09:18:56.553Z,11.31
2023-03-29T09:21:47.512Z,11.60
2023-03-29T09:24:57.853Z,11.83
2023-03-29T09:27:49.950Z,12.02
2023-03-29T09:30:41.589Z,12.22
2023-03-29T09:33:32.620Z,12.47
2023-03-29T09:36:25.836Z,12.45
2023-03-29T09:39:16.249Z,12.81
2023-03-29T09:42:08.900Z,12.88
2023-03-29T09:45:01.996Z,13.28
2023-03-29T09:47:53.326Z,13.41
2023-03-29T09:50:43.767Z,13.68
2023-03-29T09:53:32.252Z,13.76
2023-03-29T09:56:21.486Z,13.78
2023-03-29T09:59:13.470Z,13.97
2023-03-29T10:02:08.647Z,13.99
2023-03-29T10:05:01.040Z,14.00
2023-03-29T10:07:52.932Z,13.98
2023-03-29T10:10:41.637Z,14.07
2023-03-29T10:13:31.652Z,14.07
2023-03-29T10:16:23.227Z,14.14
2023-03-29T10:19:18.440Z,14.40
2023-03-29T10:22:09.181Z,14.62
2023-03-29T10:24:58.188Z,14.88
2023-03-29T10:27:47.760Z,14.93
2023-03-29T10:30:38.610Z,15.03
2023-03-29T10:33:31.996Z,15.29
2023-03-29T10:36:20.829Z,15.46
2023-03-29T10:39:11.697Z,15.98
2023-03-29T10:42:00.593Z,16.12
2023-03-29T10:44:54.613Z,16.52
2023-03-29T10:47:45.993Z,16.60
2023-03-29T10:50:38.054Z,16.82
2023-03-29T10:53:28.483Z,17.15
2023-03-29T10:56:40.188Z,17.24
2023-03-29T10:59:30.234Z,17.21
2023-03-29T11:02:54.573Z,16.91
2023-03-29T11:05:49.142Z,16.78
2023-03-29T11:08:48.925Z,17.01
2023-03-29T11:12:15.159Z,17.17
2023-03-29T11:15:16.436Z,17.30
2023-03-29T11:18:30.312Z,17.55
2023-03-29T11:21:26.058Z,17.65
2023-03-29T11:24:46.824Z,17.49
2023-03-29T11:27:39.991Z,17.49
2023-03-29T11:30:32.095Z,17.42
2023-03-29T11:33:34.605Z,17.32
2023-03-29T11:36:26.881Z,17.42
2023-03-29T11:39:19.443Z,17.27
2023-03-29T11:42:12.752Z,17.22
2023-03-29T11:45:04.889Z,17.23
2023-03-29T11:47:54.082Z,17.18
2023-03-29T11:50:45.977Z,16.75
2023-03-29T11:53:42.662Z,17.12
2023-03-29T11:56:35.231Z,17.16
2023-03-29T11:59:27.421Z,17.11
2023-03-29T12:02:21.216Z,17.15
2023-03-29T12:05:13.219Z,17.23
2023-03-29T12:08:04.455Z,16.94
2023-03-29T12:10:59.215Z,17.15
2023-03-29T12:13:52.459Z,17.05
2023-03-29T12:16:43.931Z,17.35
2023-03-29T12:19:39.609Z,17.14
2023-03-29T12:22:29.574Z,17.36
2023-03-29T12:25:21.918Z,17.30
2023-03-29T12:28:27.992Z,17.21
2023-03-29T12:31:20.877Z,17.19
2023-03-29T12:34:21.959Z,17.14
2023-03-29T12:37:33.256Z,17.11
2023-03-29T12:40:24.163Z,17.13
2023-03-29T12:43:20.609Z,17.12
2023-03-29T12:46:10.351Z,17.10
2023-03-29T12:49:05.779Z,17.07
2023-03-29T12:51:55.584Z,17.02
2023-03-29T12:54:54.298Z,16.85
2023-03-29T12:57:45.658Z,16.64
2023-03-29T13:00:44.953Z,16.74
2023-03-29T13:03:42.432Z,16.62
2023-03-29T13:06:33.753Z,16.55
2023-03-29T13:09:23.910Z,16.16
2023-03-29T13:12:22.735Z,16.42
2023-03-29T13:15:23.824Z,16.32
2023-03-29T13:18:33.984Z,16.31
2023-03-29T13:21:26.285Z,16.33
2023-03-29T13:24:30.240Z,16.20
2023-03-29T13:27:26.179Z,15.80
2023-03-29T13:30:24.469Z,15.92
2023-03-29T13:33:26.424Z,15.86
2023-03-29T13:36:18.390Z,15.82
2023-03-29T13:39:07.827Z,15.95
2023-03-29T13:42:09.179Z,15.96
2023-03-29T13:45:06.781Z,15.95
2023-03-29T13:48:05.433Z,15.92
2023-03-29T13:50:57.593Z,15.80
2023-03-29T13:53:50.514Z,15.68
2023-03-29T13:56:43.222Z,15.63
2023-03-29T13:59:39.544Z,15.56
2023-03-29T14:02:39.374Z,15.55
2023-03-29T14:05:31.487Z,15.56
2023-03-29T14:08:25.428Z,15.64
2023-03-29T14:11:23.239Z,15.76
2023-03-29T14:14:12.634Z,15.78
2023-03-29T14:17:02.250Z,15.63
2023-03-29T14:19:51.413Z,15.45
2023-03-29T14:22:39.908Z,15.65
2023-03-29T14:25:30.547Z,15.81
2023-03-29T14:28:23.229Z,15.82
2023-03-29T14:31:18.599Z,15.86
2023-03-29T14:34:08.817Z,15.81
2023-03-29T14:36:58.454Z,15.79
2023-03-29T14:39:47.187Z,15.88
2023-03-29T14:42:38.721Z,15.97
2023-03-29T14:45:27.227Z,15.95
2023-03-29T14:48:16.446Z,16.18
2023-03-29T14:51:06.385Z,16.25
2023-03-29T14:53:54.896Z,16.17
2023-03-29T14:56:43.473Z,16.16
2023-03-29T14:59:38.086Z,16.17
2023-03-29T15:02:28.477Z,16.24
2023-03-29T15:05:26.245Z,16.20
2023-03-29T15:08:17.861Z,16.27
2023-03-29T15:11:13.993Z,16.33
2023-03-29T15:14:04.331Z,16.25
2023-03-29T15:16:57.150Z,16.20
2023-03-29T15:19:45.847Z,16.19
2023-03-29T15:22:35.199Z,16.21
2023-03-29T15:25:23.693Z,16.23
2023-03-29T15:28:26.091Z,16.26
2023-03-29T15:31:19.221Z,16.24
2023-03-29T15:34:12.793Z,16.24
2023-03-29T15:37:02.446Z,16.23
2023-03-29T15:39:51.017Z,16.26
2023-03-29T15:42:39.547Z,16.20
2023-03-29T15:45:28.026Z,16.17
2023-03-29T15:48:25.010Z,16.16
2023-03-29T15:51:14.948Z,15.94
2023-03-29T15:54:03.526Z,16.16
2023-03-29T15:56:54.319Z,16.32
2023-03-29T15:59:43.515Z,16.41
2023-03-29T16:02:32.185Z,16.36
2023-03-29T16:05:20.812Z,16.34
2023-03-29T16:08:12.158Z,16.38
2023-03-29T16:11:00.746Z,16.43
2023-03-29T16:13:49.392Z,16.40
2023-03-29T16:16:37.978Z,16.47
2023-03-29T16:19:27.202Z,16.51
2023-03-29T16:22:15.739Z,16.43
2023-03-29T16:25:08.352Z,16.35
2023-03-29T16:27:56.816Z,16.33
2023-03-29T16:30:45.411Z,16.26
2023-03-29T16:33:34.125Z,16.12
2023-03-29T16:36:22.691Z,16.07
2023-03-29T16:39:12.853Z,15.99
2023-03-29T16:42:02.695Z,15.97
2023-03-29T16:44:51.423Z,15.96
2023-03-29T16:47:40.217Z,15.90
2023-03-29T16:50:29.005Z,15.88
2023-03-29T16:53:18.286Z,15.81
2023-03-29T16:56:07.923Z,15.73
2023-03-29T16:58:57.761Z,15.78
2023-03-29T17:01:46.337Z,15.76
2023-03-29T17:04:34.989Z,15.75
2023-03-29T17:07:23.593Z,15.77
2023-03-29T17:10:12.917Z,15.76
2023-03-29T17:13:01.472Z,15.67
2023-03-29T17:15:52.351Z,15.57
2023-03-29T17:18:40.953Z,15.60
2023-03-29T17:21:29.745Z,15.57
2023-03-29T17:24:18.216Z,15.54
2023-03-29T17:27:07.046Z,15.49
2023-03-29T17:29:55.619Z,15.41
2023-03-29T17:32:45.748Z,15.41
2023-03-29T17:35:34.519Z,15.29
2023-03-29T17:38:23.057Z,15.29
2023-03-29T17:41:11.664Z,15.26
2023-03-29T17:44:01.151Z,15.19
2023-03-29T17:46:49.728Z,15.12
2023-03-29T17:49:39.545Z,15.05
2023-03-29T17:52:28.085Z,14.88
2023-03-29T17:55:16.934Z,14.88
2023-03-29T17:58:05.568Z,14.75
2023-03-29T18:00:54.124Z,14.76
2023-03-29T18:03:43.296Z,14.67
2023-03-29T18:06:33.101Z,14.59
2023-03-29T18:09:21.611Z,14.51
2023-03-29T18:12:10.172Z,14.47
2023-03-29T18:14:59.019Z,14.40
2023-03-29T18:17:47.850Z,14.51
2023-03-29T18:20:36.371Z,14.51
2023-03-29T18:23:26.227Z,14.36
2023-03-29T18:26:15.922Z,14.35
2023-03-29T18:29:04.546Z,14.42
2023-03-29T18:31:53.040Z,14.36
2023-03-29T18:34:41.845Z,14.31
2023-03-29T18:37:30.360Z,14.34
2023-03-29T18:40:24.616Z,14.29
2023-03-29T18:43:13.153Z,14.19
2023-03-29T18:46:02.134Z,14.13
2023-03-29T18:48:51.042Z,14.06
2023-03-29T18:51:39.661Z,14.06
2023-03-29T18:54:28.211Z,14.03
2023-03-29T18:57:18.001Z,14.01
2023-03-29T19:00:12.406Z,13.92
2023-03-29T19:14:39.133Z,13.97
2023-03-29T19:17:28.804Z,13.86
2023-03-29T19:20:17.618Z,13.83
2023-03-29T19:23:06.294Z,13.82
2023-03-29T19:25:55.289Z,13.86
2023-03-29T19:28:43.788Z,13.82
2023-03-29T19:31:37.702Z,13.83
2023-03-29T19:34:26.657Z,13.78
2023-03-29T19:37:16.890Z,13.77
2023-03-29T19:40:08.138Z,13.70
2023-03-29T19:42:56.626Z,13.59
2023-03-29T19:45:45.417Z,13.57
2023-03-29T19:48:35.319Z,13.54
2023-03-29T19:51:26.682Z,13.40
2023-03-29T19:54:17.264Z,13.39
2023-03-29T19:57:07.280Z,13.38
2023-03-29T19:59:55.831Z,13.22
2023-03-29T20:02:44.330Z,13.33
2023-03-29T20:05:35.898Z,13.46
2023-03-29T20:08:24.741Z,13.42
2023-03-29T20:11:14.087Z,13.37
2023-03-29T20:14:02.615Z,13.32
2023-03-29T20:16:52.289Z,13.25
2023-03-29T20:19:44.184Z,13.19
2023-03-29T20:22:34.054Z,13.06
2023-03-29T20:25:22.585Z,13.12
2023-03-29T20:28:12.851Z,13.17
2023-03-29T20:31:04.863Z,12.92
2023-03-29T20:33:53.705Z,13.13
2023-03-29T20:36:42.348Z,13.08
2023-03-29T20:39:32.361Z,13.10
2023-03-29T20:42:28.503Z,13.01
2023-03-29T20:45:19.317Z,13.02
2023-03-29T20:48:07.965Z,12.90
2023-03-29T20:50:57.691Z,12.89
2023-03-29T20:53:46.573Z,12.93
2023-03-29T20:56:38.564Z,12.98
2023-03-29T20:59:27.529Z,12.98
2023-03-29T21:02:18.844Z,12.96
2023-03-29T21:05:08.587Z,12.85
2023-03-29T21:07:57.535Z,12.86
2023-03-29T21:10:47.725Z,12.86
2023-03-29T21:13:37.560Z,12.66
2023-03-29T21:16:29.029Z,12.82
2023-03-29T21:19:19.571Z,12.92
2023-03-29T21:22:09.006Z,12.93
2023-03-29T21:24:57.438Z,12.82
2023-03-29T21:27:45.965Z,12.91
2023-03-29T21:30:35.991Z,12.85
2023-03-29T21:33:24.604Z,12.58
2023-03-29T21:36:13.102Z,12.82
2023-03-29T21:39:01.679Z,12.70
2023-03-29T21:41:52.278Z,12.55
2023-03-29T21:44:40.790Z,12.39
2023-03-29T21:47:31.007Z,12.40
2023-03-29T21:50:19.697Z,12.46
2023-03-29T21:53:08.489Z,12.38
2023-03-29T21:55:56.974Z,12.34
2023-03-29T21:58:45.553Z,12.31
2023-03-29T22:01:34.160Z,12.19
2023-03-29T22:04:35.780Z,12.20
2023-03-29T22:07:25.226Z,12.12
2023-03-29T22:10:13.983Z,11.65
2023-03-29T22:13:03.098Z,12.01
2023-03-29T22:15:59.139Z,12.04
2023-03-29T22:18:49.658Z,11.99
2023-03-29T22:21:39.816Z,11.96
2023-03-29T22:24:28.948Z,11.88
2023-03-29T22:27:17.401Z,11.91
2023-03-29T22:30:08.048Z,11.91
2023-03-29T22:32:56.576Z,11.88
2023-03-29T22:35:45.123Z,11.97
2023-03-29T22:38:35.007Z,11.78
2023-03-29T22:41:25.983Z,11.83
2023-03-29T22:44:14.523Z,11.72
2023-03-29T22:47:03.006Z,11.70
2023-03-29T22:49:51.541Z,11.84
2023-03-29T22:52:40.027Z,11.72
2023-03-29T22:55:29.799Z,11.65
2023-03-29T22:58:18.250Z,11.67
2023-03-29T23:01:07.609Z,11.64
2023-03-29T23:03:56.330Z,11.65
2023-03-29T23:06:44.940Z,11.68
2023-03-29T23:09:33.653Z,11.67
2023-03-29T23:12:24.477Z,11.69
2023-03-29T23:15:13.514Z,11.74
2023-03-29T23:18:02.230Z,11.78
2023-03-29T23:20:52.380Z,11.80
2023-03-29T23:23:41.077Z,11.90
2023-03-29T23:26:29.505Z,11.92
2023-03-29T23:29:19.294Z,12.01
2023-03-29T23:32:08.054Z,12.12
2023-03-29T23:34:56.490Z,12.24
2023-03-29T23:37:45.084Z,12.43
2023-03-29T23:40:33.984Z,12.63
2023-03-29T23:43:22.681Z,13.01
2023-03-29T23:46:14.132Z,13.32
2023-03-29T23:49:03.178Z,13.44
2023-03-29T23:51:51.594Z,13.66
2023-03-29T23:54:40.069Z,13.99
2023-03-29T23:57:28.699Z,14.10
